createdAt,value
2019-04-30T00:00:53.062Z,8.06
2019-04-30T00:03:32.500Z,7.99
2019-04-30T00:06:01.942Z,7.91
2019-04-30T00:08:35.527Z,7.97
2019-04-30T00:11:02.442Z,7.84
2019-04-30T00:13:31.649Z,7.78
2019-04-30T00:16:01.980Z,7.82
2019-04-30T00:18:35.275Z,7.85
2019-04-30T00:21:01.497Z,7.78
2019-04-30T00:23:30.944Z,7.78
2019-04-30T00:26:06.248Z,7.55
2019-04-30T00:28:30.637Z,7.90
2019-04-30T00:30:59.521Z,7.68
2019-04-30T00:33:28.413Z,7.64
2019-04-30T00:35:58.061Z,7.80
2019-04-30T00:38:29.460Z,7.44
2019-04-30T00:41:01.648Z,7.56
2019-04-30T00:43:28.175Z,7.53
2019-04-30T00:45:57.168Z,7.62
2019-04-30T00:48:29.671Z,7.69
2019-04-30T00:50:56.591Z,7.62
2019-04-30T00:53:26.219Z,7.37
2019-04-30T00:55:57.194Z,7.46
2019-04-30T00:58:30.205Z,7.62
2019-04-30T01:01:06.831Z,7.67
2019-04-30T01:03:32.923Z,7.69
2019-04-30T01:06:01.815Z,7.77
2019-04-30T01:08:32.147Z,7.41
2019-04-30T01:11:06.462Z,7.60
2019-04-30T01:13:31.662Z,7.67
2019-04-30T01:16:00.553Z,7.83
2019-04-30T01:18:32.160Z,7.77
2019-04-30T01:21:03.071Z,7.84
2019-04-30T01:23:31.715Z,7.63
2019-04-30T01:26:01.094Z,7.61
2019-04-30T01:28:30.427Z,7.65
2019-04-30T01:31:01.914Z,7.71
2019-04-30T01:33:34.574Z,7.79
2019-04-30T01:36:04.085Z,7.37
2019-04-30T01:38:31.735Z,7.03
2019-04-30T01:41:00.624Z,7.02
2019-04-30T01:43:33.136Z,7.05
2019-04-30T01:46:01.811Z,7.01
2019-04-30T01:48:30.780Z,7.03
2019-04-30T01:51:01.096Z,7.02
2019-04-30T01:53:30.098Z,7.12
2019-04-30T01:56:12.549Z,7.02
2019-04-30T01:58:42.934Z,7.02
2019-04-30T02:01:13.769Z,7.05
2019-04-30T02:03:42.661Z,7.05
2019-04-30T02:06:11.697Z,6.80
2019-04-30T02:08:40.546Z,6.85
2019-04-30T02:11:10.052Z,6.62
2019-04-30T02:13:39.267Z,6.69
2019-04-30T02:16:08.776Z,6.68
2019-04-30T02:18:39.338Z,6.61
2019-04-30T02:21:11.470Z,6.45
2019-04-30T02:23:39.834Z,6.45
2019-04-30T02:26:08.927Z,6.46
2019-04-30T02:28:39.362Z,6.53
2019-04-30T02:31:09.361Z,6.59
2019-04-30T02:33:40.523Z,6.55
2019-04-30T02:36:29.830Z,6.31
2019-04-30T02:39:02.420Z,6.66
2019-04-30T02:41:31.155Z,6.57
2019-04-30T02:44:01.067Z,6.34
2019-04-30T02:46:32.267Z,6.34
2019-04-30T02:49:03.262Z,6.43
2019-04-30T02:51:34.996Z,6.54
2019-04-30T02:54:12.009Z,6.27
2019-04-30T02:56:42.430Z,6.35
2019-04-30T02:59:11.931Z,6.23
2019-04-30T03:01:40.821Z,6.18
2019-04-30T03:04:10.270Z,6.15
2019-04-30T03:06:40.850Z,6.19
2019-04-30T03:09:10.942Z,6.13
2019-04-30T03:11:40.734Z,6.11
2019-04-30T03:14:10.880Z,5.82
2019-04-30T03:17:00.427Z,5.67
2019-04-30T03:19:33.607Z,5.69
2019-04-30T03:22:06.788Z,5.72
2019-04-30T03:24:35.674Z,5.54
2019-04-30T03:27:04.650Z,5.58
2019-04-30T03:29:33.543Z,5.75
2019-04-30T03:32:03.599Z,5.65
2019-04-30T03:34:33.335Z,5.42
2019-04-30T03:37:02.469Z,5.38
2019-04-30T03:39:33.766Z,5.21
2019-04-30T03:42:01.886Z,5.40
2019-04-30T03:44:32.426Z,5.67
2019-04-30T03:47:02.942Z,5.44
2019-04-30T03:49:31.836Z,5.58
2019-04-30T03:52:00.735Z,5.36
2019-04-30T03:54:29.618Z,5.44
2019-04-30T03:57:00.902Z,5.55
2019-04-30T03:59:30.418Z,5.69
2019-04-30T04:02:16.975Z,5.55
2019-04-30T04:04:52.126Z,5.68
2019-04-30T04:07:34.519Z,5.65
2019-04-30T04:10:05.053Z,5.58
2019-04-30T04:12:33.941Z,5.64
2019-04-30T04:15:03.920Z,5.62
2019-04-30T04:17:33.159Z,5.69
2019-04-30T04:20:02.054Z,5.65
2019-04-30T04:22:31.071Z,5.64
2019-04-30T04:25:00.359Z,5.71
2019-04-30T04:27:30.107Z,5.77
2019-04-30T04:30:01.194Z,5.68
2019-04-30T04:32:30.786Z,5.56
2019-04-30T04:35:00.482Z,5.50
2019-04-30T04:37:30.374Z,5.69
2019-04-30T04:39:59.821Z,5.81
2019-04-30T04:42:32.479Z,5.64
2019-04-30T04:44:59.749Z,5.78
2019-04-30T04:47:30.880Z,5.76
2019-04-30T04:50:01.145Z,5.50
2019-04-30T04:52:31.609Z,5.61
2019-04-30T04:55:00.775Z,5.48
2019-04-30T04:57:30.448Z,5.48
2019-04-30T05:00:06.913Z,5.47
2019-04-30T05:02:34.807Z,5.70
2019-04-30T05:05:03.923Z,5.70
2019-04-30T05:07:32.790Z,5.68
2019-04-30T05:10:01.688Z,5.56
2019-04-30T05:12:30.577Z,5.57
2019-04-30T05:14:59.923Z,5.65
2019-04-30T05:17:31.669Z,5.83
2019-04-30T05:19:59.583Z,5.83
2019-04-30T05:22:29.413Z,5.82
2019-04-30T05:24:59.044Z,5.84
2019-04-30T05:27:28.119Z,5.75
2019-04-30T05:29:57.008Z,5.72
2019-04-30T05:32:25.899Z,5.84
2019-04-30T05:34:54.894Z,5.92
2019-04-30T05:37:23.783Z,5.91
2019-04-30T05:39:52.677Z,6.15
2019-04-30T05:42:21.567Z,6.06
2019-04-30T05:44:50.459Z,6.13
2019-04-30T05:47:19.969Z,6.26
2019-04-30T05:49:49.151Z,6.34
2019-04-30T05:52:19.889Z,6.50
2019-04-30T05:54:48.931Z,6.45
2019-04-30T05:57:19.739Z,6.70
2019-04-30T05:59:48.944Z,6.53
2019-04-30T06:02:19.333Z,6.51
2019-04-30T06:04:49.055Z,6.71
2019-04-30T06:07:18.944Z,6.80
2019-04-30T06:09:56.780Z,6.89
2019-04-30T06:12:30.179Z,7.02
2019-04-30T06:15:11.835Z,6.96
2019-04-30T06:17:41.807Z,6.91
2019-04-30T06:20:18.393Z,7.14
2019-04-30T06:22:42.615Z,6.90
2019-04-30T06:25:12.352Z,6.98
2019-04-30T06:27:41.343Z,7.11
2019-04-30T06:30:12.145Z,7.14
2019-04-30T06:32:41.175Z,7.26
2019-04-30T06:35:12.489Z,7.21
2019-04-30T06:37:41.415Z,7.39
2019-04-30T06:40:11.891Z,7.47
2019-04-30T06:42:41.041Z,7.44
2019-04-30T06:45:10.454Z,7.32
2019-04-30T06:47:39.941Z,7.54
2019-04-30T06:50:09.965Z,7.55
2019-04-30T06:52:39.133Z,7.62
2019-04-30T06:55:09.443Z,7.67
2019-04-30T06:57:38.529Z,7.94
2019-04-30T07:00:09.863Z,8.19
2019-04-30T07:02:39.367Z,8.19
2019-04-30T07:05:10.226Z,8.32
2019-04-30T07:07:41.804Z,8.53
2019-04-30T07:10:16.869Z,8.57
2019-04-30T07:12:50.854Z,8.77
2019-04-30T07:15:19.814Z,8.92
2019-04-30T07:17:49.182Z,9.09
2019-04-30T07:20:19.176Z,9.02
2019-04-30T07:22:53.402Z,9.26
2019-04-30T07:25:19.541Z,9.34
2019-04-30T07:27:50.596Z,9.15
2019-04-30T07:30:19.385Z,9.39
2019-04-30T07:32:48.772Z,9.45
2019-04-30T07:35:19.613Z,9.60
2019-04-30T07:37:49.777Z,9.69
2019-04-30T07:40:19.171Z,9.77
2019-04-30T07:42:49.301Z,9.77
2019-04-30T07:45:19.488Z,9.73
2019-04-30T07:47:49.467Z,9.88
2019-04-30T07:50:21.504Z,9.88
2019-04-30T07:53:01.604Z,9.88
2019-04-30T07:55:19.941Z,9.75
2019-04-30T07:57:50.647Z,9.78
2019-04-30T08:00:19.571Z,10.05
2019-04-30T08:02:52.964Z,10.20
2019-04-30T08:05:32.198Z,10.34
2019-04-30T08:08:16.231Z,9.98
2019-04-30T08:10:31.616Z,9.88
2019-04-30T08:13:08.562Z,10.15
2019-04-30T08:15:31.140Z,10.18
2019-04-30T08:18:03.552Z,10.36
2019-04-30T08:20:30.564Z,10.10
2019-04-30T08:23:12.997Z,10.52
2019-04-30T08:25:30.088Z,10.36
2019-04-30T08:27:59.198Z,10.54
2019-04-30T08:30:29.984Z,10.35
2019-04-30T08:32:59.551Z,10.44
2019-04-30T08:35:29.667Z,10.54
2019-04-30T08:37:59.109Z,10.42
2019-04-30T08:40:29.723Z,10.68
2019-04-30T08:42:59.483Z,10.93
2019-04-30T08:45:31.439Z,10.92
2019-04-30T08:47:59.221Z,11.09
2019-04-30T08:50:29.687Z,11.40
2019-04-30T08:52:59.731Z,11.46
2019-04-30T08:55:30.383Z,11.32
2019-04-30T08:58:09.280Z,11.38
2019-04-30T09:00:30.617Z,11.22
2019-04-30T09:02:59.537Z,11.34
2019-04-30T09:05:30.595Z,11.43
2019-04-30T09:07:59.916Z,11.53
2019-04-30T09:10:29.448Z,11.52
2019-04-30T09:12:59.798Z,11.59
2019-04-30T09:15:29.137Z,11.35
2019-04-30T09:18:03.798Z,11.33
2019-04-30T09:20:29.140Z,11.69
2019-04-30T09:22:59.575Z,11.76
2019-04-30T09:25:28.840Z,11.72
2019-04-30T09:27:58.844Z,11.40
2019-04-30T09:30:29.703Z,11.54
2019-04-30T09:32:59.484Z,11.70
2019-04-30T09:35:31.867Z,11.79
2019-04-30T09:38:01.850Z,11.83
2019-04-30T09:40:32.281Z,11.99
2019-04-30T09:43:00.524Z,11.73
2019-04-30T09:45:29.623Z,12.05
2019-04-30T09:47:59.212Z,11.97
2019-04-30T09:50:28.952Z,12.06
2019-04-30T09:53:00.329Z,12.00
2019-04-30T09:55:29.173Z,12.38
2019-04-30T09:57:58.876Z,12.57
2019-04-30T10:00:29.451Z,12.15
2019-04-30T10:02:59.780Z,12.37
2019-04-30T10:05:29.443Z,12.61
2019-04-30T10:07:59.354Z,12.50
2019-04-30T10:10:30.308Z,12.93
2019-04-30T10:12:59.392Z,13.15
2019-04-30T10:15:32.803Z,12.68
2019-04-30T10:18:01.694Z,12.73
2019-04-30T10:20:44.641Z,12.50
2019-04-30T10:23:15.990Z,12.56
2019-04-30T10:25:44.853Z,12.64
2019-04-30T10:28:13.743Z,12.78
2019-04-30T10:30:42.636Z,12.92
2019-04-30T10:33:11.936Z,13.07
2019-04-30T10:35:40.829Z,13.24
2019-04-30T10:38:10.231Z,12.97
2019-04-30T10:40:39.252Z,12.45
2019-04-30T10:43:09.127Z,12.77
2019-04-30T10:45:38.966Z,12.92
2019-04-30T10:48:08.488Z,13.12
2019-04-30T10:50:40.734Z,13.25
2019-04-30T10:53:09.256Z,13.36
2019-04-30T10:55:39.739Z,13.69
2019-04-30T10:58:09.142Z,13.68
2019-04-30T11:00:40.578Z,13.64
2019-04-30T11:03:19.178Z,13.82
2019-04-30T11:05:41.431Z,13.66
2019-04-30T11:08:11.673Z,13.66
2019-04-30T11:10:41.996Z,13.64
2019-04-30T11:13:12.013Z,13.71
2019-04-30T11:15:41.111Z,13.82
2019-04-30T11:18:11.178Z,13.79
2019-04-30T11:20:42.088Z,13.99
2019-04-30T11:23:14.754Z,13.87
2019-04-30T11:25:42.730Z,13.78
2019-04-30T11:28:12.582Z,13.63
2019-04-30T11:30:42.017Z,13.73
2019-04-30T11:33:12.493Z,13.95
2019-04-30T11:35:41.660Z,13.89
2019-04-30T11:38:11.265Z,14.01
2019-04-30T11:40:40.238Z,13.97
2019-04-30T11:43:09.488Z,14.19
2019-04-30T11:45:56.371Z,14.46
2019-04-30T11:48:25.368Z,14.69
2019-04-30T11:50:54.363Z,13.98
2019-04-30T11:53:27.882Z,14.12
2019-04-30T11:55:55.524Z,14.15
2019-04-30T11:58:24.412Z,14.52
2019-04-30T12:00:53.410Z,14.68
2019-04-30T12:03:23.936Z,14.99
2019-04-30T12:05:52.827Z,14.85
2019-04-30T12:08:23.254Z,14.36
2019-04-30T12:10:56.549Z,14.37
2019-04-30T12:13:30.047Z,14.47
2019-04-30T12:15:59.347Z,14.75
2019-04-30T12:18:28.344Z,14.62
2019-04-30T12:20:57.239Z,15.00
2019-04-30T12:23:26.432Z,14.90
2019-04-30T12:25:55.325Z,14.54
2019-04-30T12:28:24.218Z,14.21
2019-04-30T12:30:53.105Z,14.63
2019-04-30T12:33:21.996Z,14.47
2019-04-30T12:35:51.312Z,14.30
2019-04-30T12:38:20.290Z,14.25
2019-04-30T12:40:49.289Z,14.05
2019-04-30T12:43:18.275Z,14.06
2019-04-30T12:45:50.227Z,14.29
2019-04-30T12:48:22.713Z,14.61
2019-04-30T12:51:09.188Z,15.02
2019-04-30T12:53:57.566Z,15.12
2019-04-30T12:56:27.992Z,14.59
2019-04-30T12:58:56.888Z,14.52
2019-04-30T13:01:25.885Z,14.73
2019-04-30T13:03:58.668Z,14.75
2019-04-30T13:06:25.947Z,14.74
2019-04-30T13:08:55.769Z,14.30
2019-04-30T13:11:25.536Z,14.22
2019-04-30T13:13:55.280Z,14.73
2019-04-30T13:16:24.654Z,14.87
2019-04-30T13:18:53.546Z,14.93
2019-04-30T13:21:22.535Z,14.78
2019-04-30T13:23:51.431Z,14.78
2019-04-30T13:26:21.828Z,14.57
2019-04-30T13:28:52.281Z,14.94
2019-04-30T13:31:21.176Z,15.29
2019-04-30T13:33:52.605Z,15.41
2019-04-30T13:36:22.026Z,15.49
2019-04-30T13:38:52.600Z,15.58
2019-04-30T13:41:22.982Z,15.87
2019-04-30T13:43:58.635Z,15.96
2019-04-30T13:46:28.508Z,15.39
2019-04-30T13:48:57.443Z,15.79
2019-04-30T13:51:26.333Z,15.81
2019-04-30T13:53:55.224Z,15.33
2019-04-30T13:56:24.112Z,15.15
2019-04-30T13:58:53.112Z,15.34
2019-04-30T14:01:21.997Z,14.79
2019-04-30T14:04:01.743Z,14.81
2019-04-30T14:06:41.283Z,15.52
2019-04-30T14:09:12.133Z,15.48
2019-04-30T14:11:42.528Z,15.43
2019-04-30T14:14:12.156Z,15.77
2019-04-30T14:16:43.731Z,16.69
2019-04-30T14:19:12.599Z,16.81
2019-04-30T14:21:41.611Z,17.44
2019-04-30T14:24:11.509Z,16.62
2019-04-30T14:26:40.500Z,17.39
2019-04-30T14:29:09.905Z,17.10
2019-04-30T14:31:38.921Z,17.26
2019-04-30T14:34:10.038Z,17.26
2019-04-30T14:36:39.236Z,16.98
2019-04-30T14:39:14.557Z,17.92
2019-04-30T14:41:41.244Z,18.02
2019-04-30T14:44:13.424Z,16.86
2019-04-30T14:46:44.495Z,17.48
2019-04-30T14:49:16.441Z,17.49
2019-04-30T14:51:45.901Z,17.67
2019-04-30T14:54:25.442Z,17.61
2019-04-30T14:57:12.313Z,17.44
2019-04-30T14:59:42.705Z,17.77
2019-04-30T15:02:17.000Z,18.96
2019-04-30T15:04:45.887Z,18.63
2019-04-30T15:07:14.780Z,18.25
2019-04-30T15:09:43.670Z,17.68
2019-04-30T15:12:13.996Z,18.11
2019-04-30T15:14:42.890Z,17.88
2019-04-30T15:17:12.087Z,17.79
2019-04-30T15:19:40.981Z,18.02
2019-04-30T15:22:10.382Z,18.76
2019-04-30T15:24:40.602Z,18.20
2019-04-30T15:27:10.519Z,18.66
2019-04-30T15:29:39.410Z,19.02
2019-04-30T15:32:11.067Z,18.96
2019-04-30T15:34:42.430Z,18.37
2019-04-30T15:37:19.098Z,18.38
2019-04-30T15:39:43.062Z,18.11
2019-04-30T15:42:12.568Z,18.31
2019-04-30T15:44:45.327Z,18.73
2019-04-30T15:47:12.707Z,19.19
2019-04-30T15:49:41.600Z,18.04
2019-04-30T15:52:11.185Z,17.66
2019-04-30T15:54:39.996Z,18.11
2019-04-30T15:57:09.397Z,17.57
2019-04-30T15:59:41.592Z,17.60
2019-04-30T16:02:18.882Z,17.57
2019-04-30T16:05:05.460Z,18.15
2019-04-30T16:07:35.887Z,18.22
2019-04-30T16:10:18.668Z,18.27
2019-04-30T16:12:49.257Z,17.79
2019-04-30T16:15:19.044Z,17.91
2019-04-30T16:17:49.483Z,17.63
2019-04-30T16:20:18.365Z,18.01
2019-04-30T16:22:49.249Z,18.58
2019-04-30T16:25:19.389Z,18.58
2019-04-30T16:27:48.724Z,17.86
2019-04-30T16:30:19.581Z,18.55
2019-04-30T16:32:50.655Z,18.47
2019-04-30T16:35:19.723Z,18.68
2019-04-30T16:37:49.610Z,18.16
2019-04-30T16:40:19.080Z,18.61
2019-04-30T16:42:49.654Z,17.88
2019-04-30T16:45:19.476Z,18.28
2019-04-30T16:47:48.460Z,18.57
2019-04-30T16:50:18.832Z,18.51
2019-04-30T16:52:49.873Z,18.82
2019-04-30T16:55:18.923Z,18.77
2019-04-30T16:57:49.665Z,19.04
2019-04-30T17:00:20.151Z,18.34
2019-04-30T17:02:50.610Z,18.68
2019-04-30T17:05:39.486Z,18.04
2019-04-30T17:08:10.099Z,18.12
2019-04-30T17:10:40.528Z,18.33
2019-04-30T17:13:23.551Z,17.83
2019-04-30T17:15:57.050Z,17.42
2019-04-30T17:18:38.710Z,17.81
2019-04-30T17:21:09.872Z,17.35
2019-04-30T17:23:40.619Z,17.79
2019-04-30T17:26:09.932Z,17.71
2019-04-30T17:28:38.812Z,17.03
2019-04-30T17:31:09.732Z,17.46
2019-04-30T17:33:38.603Z,17.42
2019-04-30T17:36:08.349Z,17.76
2019-04-30T17:38:38.778Z,17.63
2019-04-30T17:41:08.824Z,17.82
2019-04-30T17:43:39.417Z,17.83
2019-04-30T17:46:08.628Z,17.51
2019-04-30T17:48:39.296Z,17.57
2019-04-30T17:51:09.547Z,17.61
2019-04-30T17:53:40.013Z,17.80
2019-04-30T17:56:09.414Z,17.37
2019-04-30T17:58:38.413Z,17.40
2019-04-30T18:01:09.308Z,17.62
2019-04-30T18:03:38.796Z,17.87
2019-04-30T18:06:09.059Z,17.83
2019-04-30T18:08:37.863Z,17.38
2019-04-30T18:11:06.868Z,17.24
2019-04-30T18:13:35.751Z,17.43
2019-04-30T18:16:04.748Z,16.54
2019-04-30T18:18:35.173Z,16.16
2019-04-30T18:21:21.983Z,16.04
2019-04-30T18:23:54.381Z,16.06
2019-04-30T18:26:22.940Z,15.80
2019-04-30T18:28:51.855Z,16.02
2019-04-30T18:31:20.725Z,15.94
2019-04-30T18:33:51.418Z,15.63
2019-04-30T18:36:20.348Z,15.67
2019-04-30T18:38:50.272Z,15.60
2019-04-30T18:41:19.451Z,15.40
2019-04-30T18:43:48.792Z,14.75
2019-04-30T18:46:19.158Z,14.78
2019-04-30T18:48:52.587Z,14.61
2019-04-30T18:51:35.943Z,14.72
2019-04-30T18:53:51.494Z,14.46
2019-04-30T18:56:20.330Z,14.58
2019-04-30T18:58:49.283Z,14.44
2019-04-30T19:01:18.178Z,13.99
2019-04-30T19:03:49.137Z,14.06
2019-04-30T19:06:25.738Z,13.93
2019-04-30T19:08:56.002Z,13.93
2019-04-30T19:11:28.760Z,13.79
2019-04-30T19:14:15.032Z,13.74
2019-04-30T19:16:51.347Z,13.72
2019-04-30T19:19:29.554Z,13.67
2019-04-30T19:21:58.691Z,13.55
2019-04-30T19:24:27.542Z,13.76
2019-04-30T19:26:56.434Z,13.52
2019-04-30T19:29:25.324Z,13.33
2019-04-30T19:31:54.219Z,13.63
2019-04-30T19:34:23.208Z,13.50
2019-04-30T19:36:52.101Z,13.56
2019-04-30T19:39:21.608Z,13.60
2019-04-30T19:41:50.497Z,13.61
2019-04-30T19:44:21.089Z,13.54
2019-04-30T19:46:50.020Z,13.51
2019-04-30T19:49:19.262Z,13.36
2019-04-30T19:51:49.510Z,13.20
2019-04-30T19:54:19.246Z,13.24
2019-04-30T19:56:50.148Z,13.11
2019-04-30T19:59:19.331Z,12.97
2019-04-30T20:01:48.823Z,12.64
2019-04-30T20:04:18.575Z,12.62
2019-04-30T20:06:48.778Z,12.71
2019-04-30T20:09:19.423Z,12.87
2019-04-30T20:11:49.254Z,12.86
2019-04-30T20:14:18.715Z,12.79
2019-04-30T20:16:48.657Z,12.54
2019-04-30T20:19:17.689Z,12.79
2019-04-30T20:21:51.363Z,12.54
2019-04-30T20:24:19.086Z,12.54
2019-04-30T20:26:50.226Z,12.65
2019-04-30T20:29:18.988Z,12.50
2019-04-30T20:31:48.765Z,12.50
2019-04-30T20:34:19.182Z,12.69
2019-04-30T20:36:48.224Z,12.51
2019-04-30T20:39:18.608Z,12.36
2019-04-30T20:41:49.589Z,12.39
2019-04-30T20:44:18.990Z,12.30
2019-04-30T20:46:49.110Z,12.42
2019-04-30T20:49:19.200Z,12.39
2019-04-30T20:51:55.252Z,12.38
2019-04-30T20:54:19.041Z,12.15
2019-04-30T20:56:48.362Z,12.31
2019-04-30T20:59:19.097Z,12.47
2019-04-30T21:01:49.008Z,12.42
2019-04-30T21:04:20.568Z,12.37
2019-04-30T21:06:49.649Z,12.32
2019-04-30T21:09:18.652Z,12.11
2019-04-30T21:11:48.992Z,11.95
2019-04-30T21:14:19.242Z,11.61
2019-04-30T21:16:48.707Z,11.73
2019-04-30T21:19:19.237Z,11.94
2019-04-30T21:21:49.737Z,11.95
2019-04-30T21:24:18.603Z,11.85
2019-04-30T21:26:47.546Z,11.82
2019-04-30T21:29:16.442Z,11.74
2019-04-30T21:31:49.280Z,11.74
2019-04-30T21:34:29.351Z,11.77
2019-04-30T21:36:59.663Z,11.87
2019-04-30T21:39:28.705Z,11.81
2019-04-30T21:41:59.331Z,11.50
2019-04-30T21:44:28.320Z,11.54
2019-04-30T21:46:57.216Z,11.81
2019-04-30T21:49:26.104Z,11.72
2019-04-30T21:51:54.998Z,11.47
2019-04-30T21:54:23.886Z,11.47
2019-04-30T21:56:52.777Z,11.69
2019-04-30T21:59:24.525Z,11.83
2019-04-30T22:01:52.300Z,11.82
2019-04-30T22:04:21.293Z,11.56
2019-04-30T22:06:50.187Z,11.64
2019-04-30T22:09:19.688Z,11.60
2019-04-30T22:11:49.383Z,11.33
2019-04-30T22:14:18.558Z,11.29
2019-04-30T22:16:49.334Z,11.45
2019-04-30T22:19:19.556Z,11.48
2019-04-30T22:21:49.569Z,11.47
2019-04-30T22:24:18.589Z,11.12
2019-04-30T22:26:47.456Z,11.26
2019-04-30T22:29:16.358Z,11.17
2019-04-30T22:31:45.342Z,10.98
2019-04-30T22:34:14.338Z,11.30
2019-04-30T22:36:44.897Z,11.17
2019-04-30T22:39:19.989Z,11.12
2019-04-30T22:41:49.201Z,11.01
2019-04-30T22:44:18.094Z,11.02
2019-04-30T22:46:46.983Z,11.18
2019-04-30T22:49:15.876Z,11.07
2019-04-30T22:51:44.764Z,11.10
2019-04-30T22:54:13.655Z,11.13
2019-04-30T22:56:42.547Z,10.98
2019-04-30T22:59:12.256Z,10.95
2019-04-30T23:01:46.092Z,10.47
2019-04-30T23:04:16.593Z,10.31
2019-04-30T23:06:45.484Z,10.36
2019-04-30T23:09:16.056Z,10.34
2019-04-30T23:11:44.909Z,10.39
2019-04-30T23:14:13.796Z,10.39
2019-04-30T23:16:42.691Z,10.20
2019-04-30T23:19:12.500Z,10.12
2019-04-30T23:21:41.494Z,10.47
2019-04-30T23:24:11.103Z,10.55
2019-04-30T23:26:39.992Z,10.38
2019-04-30T23:29:09.601Z,10.30
2019-04-30T23:31:38.489Z,9.97
2019-04-30T23:34:17.739Z,10.43
2019-04-30T23:36:38.529Z,10.49
2019-04-30T23:39:10.277Z,10.66
2019-04-30T23:41:39.177Z,10.49
2019-04-30T23:44:09.096Z,10.54
2019-04-30T23:46:37.986Z,10.31
2019-04-30T23:49:06.977Z,10.14
2019-04-30T23:51:35.973Z,10.29
2019-04-30T23:54:04.966Z,10.39
2019-04-30T23:56:33.855Z,10.00
2019-04-30T23:59:02.746Z,10.14
